Terminal Aerodrome Forecast
Issued by NWS Sterling, VA

Current Version | Previous Version | Graphics & Text | Print | Product List | Glossary On
Versions: 1 2 3 4 5 6 7 8 9 10 11 12 13 14 15 16 17 18 19 20 21 22 23 24 25
000
FTUS41 KLWX 202340
TAFIAD
TAF
KIAD 202340Z 2100/2206 19008KT P6SM FEW050 SCT250
     FM210800 20008KT 3SM -DZ BR BKN015
     FM211000 20008KT 3SM -DZ BR BKN008
     FM211400 20009KT 5SM BR BKN015
     FM211500 20013G22KT P6SM SCT040 BKN070
     FM220000 22007KT P6SM SCT050 BKN150
     FM220300 34009KT P6SM BKN040=

USA.gov is the U.S. government's official web portal to all federal, state and local government web resources and services.